sensor_id;sensor_type;location;lat;lon;timestamp;P1;durP1;ratioP1;P2;durP2;ratioP2
39214;SDS011;24932;51.746;14.334;2022-12-07T00:00:40;8.4;;;4.93;;
39214;SDS011;24932;51.746;14.334;2022-12-07T00:04:40;10.1;;;6.17;;
39214;SDS011;24932;51.746;14.334;2022-12-07T00:08:40;10.17;;;5.47;;
39214;SDS011;24932;51.746;14.334;2022-12-07T00:12:40;12.17;;;6.2;;
39214;SDS011;24932;51.746;14.334;2022-12-07T00:16:41;12.2;;;6.37;;
39214;SDS011;24932;51.746;14.334;2022-12-07T00:20:40;12.07;;;5.57;;
39214;SDS011;24932;51.746;14.334;2022-12-07T00:24:40;10.9;;;6.0;;
39214;SDS011;24932;51.746;14.334;2022-12-07T00:28:40;12.77;;;7.2;;
39214;SDS011;24932;51.746;14.334;2022-12-07T00:32:40;13.8;;;6.3;;
39214;SDS011;24932;51.746;14.334;2022-12-07T00:36:40;14.73;;;7.47;;
39214;SDS011;24932;51.746;14.334;2022-12-07T00:40:40;16.57;;;7.67;;
39214;SDS011;24932;51.746;14.334;2022-12-07T00:44:40;18.87;;;7.4;;
39214;SDS011;24932;51.746;14.334;2022-12-07T00:48:40;17.77;;;8.27;;
39214;SDS011;24932;51.746;14.334;2022-12-07T00:52:40;20.93;;;7.77;;
39214;SDS011;24932;51.746;14.334;2022-12-07T00:56:41;9.53;;;5.73;;
39214;SDS011;24932;51.746;14.334;2022-12-07T01:00:40;14.9;;;6.83;;
39214;SDS011;24932;51.746;14.334;2022-12-07T01:04:40;11.3;;;5.83;;
39214;SDS011;24932;51.746;14.334;2022-12-07T01:08:40;12.73;;;6.63;;
39214;SDS011;24932;51.746;14.334;2022-12-07T01:12:40;12.73;;;6.47;;
39214;SDS011;24932;51.746;14.334;2022-12-07T01:16:40;13.07;;;6.27;;
39214;SDS011;24932;51.746;14.334;2022-12-07T01:20:40;16.47;;;7.83;;
39214;SDS011;24932;51.746;14.334;2022-12-07T01:24:41;17.83;;;5.43;;
39214;SDS011;24932;51.746;14.334;2022-12-07T01:28:40;11.4;;;5.57;;
39214;SDS011;24932;51.746;14.334;2022-12-07T01:32:40;12.13;;;5.63;;
39214;SDS011;24932;51.746;14.334;2022-12-07T01:36:40;15.17;;;7.73;;
39214;SDS011;24932;51.746;14.334;2022-12-07T01:40:40;11.0;;;5.9;;
39214;SDS011;24932;51.746;14.334;2022-12-07T01:45:15;12.23;;;6.83;;
39214;SDS011;24932;51.746;14.334;2022-12-07T01:48:40;10.07;;;4.83;;
39214;SDS011;24932;51.746;14.334;2022-12-07T01:52:40;12.67;;;5.1;;
39214;SDS011;24932;51.746;14.334;2022-12-07T01:56:41;14.7;;;7.4;;
39214;SDS011;24932;51.746;14.334;2022-12-07T02:00:40;18.73;;;8.3;;
39214;SDS011;24932;51.746;14.334;2022-12-07T02:04:40;14.57;;;7.7;;
39214;SDS011;24932;51.746;14.334;2022-12-07T02:08:40;10.33;;;5.17;;
39214;SDS011;24932;51.746;14.334;2022-12-07T02:12:40;14.63;;;7.97;;
39214;SDS011;24932;51.746;14.334;2022-12-07T02:16:43;9.2;;;4.63;;
39214;SDS011;24932;51.746;14.334;2022-12-07T02:20:41;7.17;;;3.87;;
39214;SDS011;24932;51.746;14.334;2022-12-07T02:24:45;11.0;;;6.37;;
39214;SDS011;24932;51.746;14.334;2022-12-07T02:28:47;7.93;;;4.0;;
39214;SDS011;24932;51.746;14.334;2022-12-07T02:32:42;8.2;;;5.1;;
39214;SDS011;24932;51.746;14.334;2022-12-07T02:36:43;9.6;;;5.97;;
39214;SDS011;24932;51.746;14.334;2022-12-07T02:40:41;8.07;;;4.63;;
39214;SDS011;24932;51.746;14.334;2022-12-07T02:44:40;4.97;;;3.53;;
39214;SDS011;24932;51.746;14.334;2022-12-07T02:48:40;6.77;;;4.03;;
39214;SDS011;24932;51.746;14.334;2022-12-07T02:52:40;4.93;;;3.27;;
39214;SDS011;24932;51.746;14.334;2022-12-07T02:56:42;6.57;;;3.77;;
39214;SDS011;24932;51.746;14.334;2022-12-07T03:00:44;5.6;;;4.07;;
39214;SDS011;24932;51.746;14.334;2022-12-07T03:04:42;5.1;;;3.6;;
39214;SDS011;24932;51.746;14.334;2022-12-07T03:08:44;6.8;;;4.0;;
39214;SDS011;24932;51.746;14.334;2022-12-07T03:12:42;6.6;;;3.9;;
39214;SDS011;24932;51.746;14.334;2022-12-07T03:16:42;7.23;;;4.23;;
39214;SDS011;24932;51.746;14.334;2022-12-07T03:20:40;4.73;;;2.8;;
39214;SDS011;24932;51.746;14.334;2022-12-07T03:24:41;9.0;;;5.0;;
39214;SDS011;24932;51.746;14.334;2022-12-07T03:28:41;9.0;;;4.93;;
39214;SDS011;24932;51.746;14.334;2022-12-07T03:32:41;8.93;;;4.67;;
39214;SDS011;24932;51.746;14.334;2022-12-07T03:36:42;9.67;;;5.8;;
39214;SDS011;24932;51.746;14.334;2022-12-07T03:40:43;12.13;;;7.0;;
39214;SDS011;24932;51.746;14.334;2022-12-07T03:44:40;11.63;;;7.1;;
39214;SDS011;24932;51.746;14.334;2022-12-07T03:48:40;15.7;;;7.5;;
39214;SDS011;24932;51.746;14.334;2022-12-07T03:52:42;17.67;;;6.87;;
39214;SDS011;24932;51.746;14.334;2022-12-07T03:56:40;14.47;;;7.07;;
39214;SDS011;24932;51.746;14.334;2022-12-07T04:00:41;11.5;;;6.73;;
39214;SDS011;24932;51.746;14.334;2022-12-07T04:04:40;13.83;;;7.2;;
39214;SDS011;24932;51.746;14.334;2022-12-07T04:08:41;16.53;;;7.03;;
39214;SDS011;24932;51.746;14.334;2022-12-07T04:12:40;15.33;;;7.63;;
39214;SDS011;24932;51.746;14.334;2022-12-07T04:16:45;14.17;;;6.47;;
39214;SDS011;24932;51.746;14.334;2022-12-07T04:20:41;15.37;;;8.37;;
39214;SDS011;24932;51.746;14.334;2022-12-07T04:24:40;15.07;;;7.13;;
39214;SDS011;24932;51.746;14.334;2022-12-07T04:28:39;14.27;;;7.63;;
39214;SDS011;24932;51.746;14.334;2022-12-07T04:32:40;16.2;;;7.43;;
39214;SDS011;24932;51.746;14.334;2022-12-07T04:36:40;16.97;;;7.37;;
39214;SDS011;24932;51.746;14.334;2022-12-07T04:40:41;17.0;;;8.8;;
39214;SDS011;24932;51.746;14.334;2022-12-07T04:44:40;14.63;;;8.23;;
39214;SDS011;24932;51.746;14.334;2022-12-07T04:48:40;16.13;;;8.4;;
39214;SDS011;24932;51.746;14.334;2022-12-07T04:52:40;14.13;;;7.43;;
39214;SDS011;24932;51.746;14.334;2022-12-07T04:56:39;17.83;;;8.9;;
39214;SDS011;24932;51.746;14.334;2022-12-07T05:00:41;18.27;;;9.23;;
39214;SDS011;24932;51.746;14.334;2022-12-07T05:04:40;28.0;;;11.47;;
39214;SDS011;24932;51.746;14.334;2022-12-07T05:08:41;23.53;;;8.77;;
39214;SDS011;24932;51.746;14.334;2022-12-07T05:12:40;23.63;;;11.57;;
39214;SDS011;24932;51.746;14.334;2022-12-07T05:16:41;26.03;;;11.8;;
39214;SDS011;24932;51.746;14.334;2022-12-07T05:20:43;24.07;;;10.57;;
39214;SDS011;24932;51.746;14.334;2022-12-07T05:24:40;23.1;;;10.53;;
39214;SDS011;24932;51.746;14.334;2022-12-07T05:28:40;25.67;;;12.2;;
39214;SDS011;24932;51.746;14.334;2022-12-07T05:32:40;25.77;;;12.93;;
39214;SDS011;24932;51.746;14.334;2022-12-07T05:36:40;29.93;;;13.9;;
39214;SDS011;24932;51.746;14.334;2022-12-07T05:40:41;32.67;;;13.73;;
39214;SDS011;24932;51.746;14.334;2022-12-07T05:44:40;35.6;;;15.0;;
39214;SDS011;24932;51.746;14.334;2022-12-07T05:48:40;32.6;;;14.2;;
39214;SDS011;24932;51.746;14.334;2022-12-07T05:52:40;28.7;;;12.8;;
39214;SDS011;24932;51.746;14.334;2022-12-07T05:56:40;35.8;;;15.73;;
39214;SDS011;24932;51.746;14.334;2022-12-07T06:00:41;36.97;;;15.07;;
39214;SDS011;24932;51.746;14.334;2022-12-07T06:04:41;37.43;;;16.53;;
39214;SDS011;24932;51.746;14.334;2022-12-07T06:08:41;40.67;;;15.6;;
39214;SDS011;24932;51.746;14.334;2022-12-07T06:12:40;30.03;;;14.3;;
39214;SDS011;24932;51.746;14.334;2022-12-07T06:16:40;34.37;;;15.37;;
39214;SDS011;24932;51.746;14.334;2022-12-07T06:20:40;34.87;;;15.63;;
39214;SDS011;24932;51.746;14.334;2022-12-07T06:24:40;37.1;;;16.13;;
39214;SDS011;24932;51.746;14.334;2022-12-07T06:28:40;34.63;;;14.17;;
39214;SDS011;24932;51.746;14.334;2022-12-07T06:32:40;31.43;;;15.17;;
39214;SDS011;24932;51.746;14.334;2022-12-07T06:36:40;31.23;;;14.97;;
39214;SDS011;24932;51.746;14.334;2022-12-07T06:40:41;32.57;;;14.83;;
39214;SDS011;24932;51.746;14.334;2022-12-07T06:44:39;36.4;;;15.3;;
39214;SDS011;24932;51.746;14.334;2022-12-07T06:48:40;30.67;;;14.8;;
39214;SDS011;24932;51.746;14.334;2022-12-07T06:52:40;32.3;;;14.9;;
39214;SDS011;24932;51.746;14.334;2022-12-07T06:56:40;32.4;;;15.13;;
39214;SDS011;24932;51.746;14.334;2022-12-07T07:00:40;31.73;;;14.13;;
39214;SDS011;24932;51.746;14.334;2022-12-07T07:04:40;18.57;;;8.0;;
39214;SDS011;24932;51.746;14.334;2022-12-07T07:08:41;35.8;;;15.87;;
39214;SDS011;24932;51.746;14.334;2022-12-07T07:12:40;27.1;;;11.83;;
39214;SDS011;24932;51.746;14.334;2022-12-07T07:16:40;32.37;;;15.53;;
39214;SDS011;24932;51.746;14.334;2022-12-07T07:20:40;27.8;;;11.13;;
39214;SDS011;24932;51.746;14.334;2022-12-07T07:24:40;29.77;;;13.1;;
39214;SDS011;24932;51.746;14.334;2022-12-07T07:28:40;29.17;;;14.07;;
39214;SDS011;24932;51.746;14.334;2022-12-07T07:32:41;31.73;;;14.07;;
39214;SDS011;24932;51.746;14.334;2022-12-07T07:36:40;13.07;;;7.2;;
39214;SDS011;24932;51.746;14.334;2022-12-07T07:40:41;29.53;;;14.77;;
39214;SDS011;24932;51.746;14.334;2022-12-07T07:44:40;28.9;;;14.13;;
39214;SDS011;24932;51.746;14.334;2022-12-07T07:48:40;38.8;;;14.57;;
39214;SDS011;24932;51.746;14.334;2022-12-07T07:52:40;29.53;;;14.97;;
39214;SDS011;24932;51.746;14.334;2022-12-07T07:56:40;27.27;;;14.07;;
39214;SDS011;24932;51.746;14.334;2022-12-07T08:00:41;35.0;;;15.33;;
39214;SDS011;24932;51.746;14.334;2022-12-07T08:04:41;26.97;;;12.47;;
39214;SDS011;24932;51.746;14.334;2022-12-07T08:08:40;29.3;;;13.47;;
39214;SDS011;24932;51.746;14.334;2022-12-07T08:12:41;29.9;;;14.23;;
39214;SDS011;24932;51.746;14.334;2022-12-07T08:16:40;22.5;;;12.23;;
39214;SDS011;24932;51.746;14.334;2022-12-07T08:20:41;25.6;;;12.5;;
39214;SDS011;24932;51.746;14.334;2022-12-07T08:24:40;17.8;;;9.57;;
39214;SDS011;24932;51.746;14.334;2022-12-07T08:28:41;25.07;;;13.73;;
39214;SDS011;24932;51.746;14.334;2022-12-07T08:32:41;25.33;;;12.97;;
39214;SDS011;24932;51.746;14.334;2022-12-07T08:36:40;33.57;;;16.27;;
39214;SDS011;24932;51.746;14.334;2022-12-07T08:40:41;30.47;;;15.57;;
39214;SDS011;24932;51.746;14.334;2022-12-07T08:44:40;35.4;;;16.0;;
39214;SDS011;24932;51.746;14.334;2022-12-07T08:48:46;26.43;;;14.7;;
39214;SDS011;24932;51.746;14.334;2022-12-07T08:52:40;36.63;;;16.53;;
39214;SDS011;24932;51.746;14.334;2022-12-07T08:56:40;34.97;;;16.43;;
39214;SDS011;24932;51.746;14.334;2022-12-07T09:00:40;31.27;;;15.93;;
39214;SDS011;24932;51.746;14.334;2022-12-07T09:04:40;19.73;;;11.5;;
39214;SDS011;24932;51.746;14.334;2022-12-07T09:08:42;24.33;;;12.2;;
39214;SDS011;24932;51.746;14.334;2022-12-07T09:12:41;27.6;;;14.67;;
39214;SDS011;24932;51.746;14.334;2022-12-07T09:16:41;24.9;;;13.87;;
39214;SDS011;24932;51.746;14.334;2022-12-07T09:20:40;22.97;;;12.53;;
39214;SDS011;24932;51.746;14.334;2022-12-07T09:24:40;36.53;;;12.57;;
39214;SDS011;24932;51.746;14.334;2022-12-07T09:28:40;25.5;;;13.13;;
39214;SDS011;24932;51.746;14.334;2022-12-07T09:32:41;23.33;;;12.47;;
39214;SDS011;24932;51.746;14.334;2022-12-07T09:36:40;25.17;;;12.87;;
39214;SDS011;24932;51.746;14.334;2022-12-07T09:40:40;17.57;;;8.93;;
39214;SDS011;24932;51.746;14.334;2022-12-07T09:44:41;20.2;;;10.17;;
39214;SDS011;24932;51.746;14.334;2022-12-07T09:48:41;21.23;;;9.23;;
39214;SDS011;24932;51.746;14.334;2022-12-07T09:52:40;18.83;;;11.57;;
39214;SDS011;24932;51.746;14.334;2022-12-07T09:56:40;15.0;;;9.3;;
39214;SDS011;24932;51.746;14.334;2022-12-07T10:00:41;26.77;;;12.07;;
39214;SDS011;24932;51.746;14.334;2022-12-07T10:04:40;19.07;;;9.23;;
39214;SDS011;24932;51.746;14.334;2022-12-07T10:08:40;15.6;;;9.0;;
39214;SDS011;24932;51.746;14.334;2022-12-07T10:13:13;28.3;;;10.4;;
39214;SDS011;24932;51.746;14.334;2022-12-07T10:16:41;17.6;;;9.07;;
39214;SDS011;24932;51.746;14.334;2022-12-07T10:20:40;16.37;;;10.37;;
39214;SDS011;24932;51.746;14.334;2022-12-07T10:24:41;16.83;;;10.77;;
39214;SDS011;24932;51.746;14.334;2022-12-07T10:28:42;16.17;;;8.6;;
39214;SDS011;24932;51.746;14.334;2022-12-07T10:32:40;13.4;;;7.77;;
39214;SDS011;24932;51.746;14.334;2022-12-07T10:36:40;13.53;;;7.37;;
39214;SDS011;24932;51.746;14.334;2022-12-07T10:40:46;14.13;;;8.3;;
39214;SDS011;24932;51.746;14.334;2022-12-07T10:44:40;12.6;;;7.7;;
39214;SDS011;24932;51.746;14.334;2022-12-07T10:48:42;9.23;;;4.7;;
39214;SDS011;24932;51.746;14.334;2022-12-07T10:52:46;12.2;;;6.43;;
39214;SDS011;24932;51.746;14.334;2022-12-07T10:56:44;13.63;;;7.43;;
39214;SDS011;24932;51.746;14.334;2022-12-07T11:00:42;11.2;;;6.4;;
39214;SDS011;24932;51.746;14.334;2022-12-07T11:04:41;11.17;;;6.03;;
39214;SDS011;24932;51.746;14.334;2022-12-07T11:08:44;9.6;;;6.27;;
39214;SDS011;24932;51.746;14.334;2022-12-07T11:12:47;8.73;;;5.53;;
39214;SDS011;24932;51.746;14.334;2022-12-07T11:16:44;6.37;;;4.27;;
39214;SDS011;24932;51.746;14.334;2022-12-07T11:20:43;9.33;;;4.7;;
39214;SDS011;24932;51.746;14.334;2022-12-07T11:24:41;9.5;;;4.87;;
39214;SDS011;24932;51.746;14.334;2022-12-07T11:28:46;8.6;;;4.47;;
39214;SDS011;24932;51.746;14.334;2022-12-07T11:32:47;7.47;;;4.67;;
39214;SDS011;24932;51.746;14.334;2022-12-07T11:36:41;7.9;;;4.73;;
39214;SDS011;24932;51.746;14.334;2022-12-07T11:40:40;7.7;;;5.23;;
39214;SDS011;24932;51.746;14.334;2022-12-07T11:44:44;10.1;;;4.0;;
39214;SDS011;24932;51.746;14.334;2022-12-07T11:48:41;8.17;;;4.07;;
39214;SDS011;24932;51.746;14.334;2022-12-07T11:52:42;7.43;;;3.8;;
39214;SDS011;24932;51.746;14.334;2022-12-07T11:56:40;9.7;;;5.13;;
39214;SDS011;24932;51.746;14.334;2022-12-07T12:00:40;3.53;;;2.4;;
39214;SDS011;24932;51.746;14.334;2022-12-07T12:04:45;8.83;;;3.93;;
39214;SDS011;24932;51.746;14.334;2022-12-07T12:09:11;3.57;;;2.8;;
39214;SDS011;24932;51.746;14.334;2022-12-07T12:13:17;7.57;;;3.4;;
39214;SDS011;24932;51.746;14.334;2022-12-07T12:16:50;10.03;;;2.6;;
39214;SDS011;24932;51.746;14.334;2022-12-07T12:20:40;5.3;;;2.87;;
39214;SDS011;24932;51.746;14.334;2022-12-07T12:24:40;15.0;;;6.4;;
39214;SDS011;24932;51.746;14.334;2022-12-07T12:28:51;2.7;;;2.0;;
39214;SDS011;24932;51.746;14.334;2022-12-07T12:32:40;10.37;;;4.5;;
39214;SDS011;24932;51.746;14.334;2022-12-07T12:36:45;12.33;;;5.2;;
39214;SDS011;24932;51.746;14.334;2022-12-07T12:40:47;3.73;;;2.33;;
39214;SDS011;24932;51.746;14.334;2022-12-07T12:44:42;8.97;;;3.0;;
39214;SDS011;24932;51.746;14.334;2022-12-07T12:48:40;6.63;;;3.13;;
39214;SDS011;24932;51.746;14.334;2022-12-07T12:52:49;3.1;;;2.2;;
39214;SDS011;24932;51.746;14.334;2022-12-07T12:56:41;5.13;;;3.23;;
39214;SDS011;24932;51.746;14.334;2022-12-07T13:00:40;1.97;;;1.37;;
39214;SDS011;24932;51.746;14.334;2022-12-07T13:04:49;7.13;;;3.17;;
39214;SDS011;24932;51.746;14.334;2022-12-07T13:08:41;11.07;;;4.07;;
39214;SDS011;24932;51.746;14.334;2022-12-07T13:12:41;5.9;;;3.5;;
39214;SDS011;24932;51.746;14.334;2022-12-07T13:16:40;6.47;;;3.0;;
39214;SDS011;24932;51.746;14.334;2022-12-07T13:20:43;7.4;;;3.13;;
39214;SDS011;24932;51.746;14.334;2022-12-07T13:24:40;11.2;;;4.33;;
39214;SDS011;24932;51.746;14.334;2022-12-07T13:28:41;5.7;;;2.67;;
39214;SDS011;24932;51.746;14.334;2022-12-07T13:32:41;14.23;;;3.63;;
39214;SDS011;24932;51.746;14.334;2022-12-07T13:36:43;7.37;;;3.83;;
39214;SDS011;24932;51.746;14.334;2022-12-07T13:40:40;5.67;;;2.4;;
39214;SDS011;24932;51.746;14.334;2022-12-07T13:44:42;20.83;;;4.17;;
39214;SDS011;24932;51.746;14.334;2022-12-07T13:48:42;14.63;;;3.63;;
39214;SDS011;24932;51.746;14.334;2022-12-07T13:52:43;14.67;;;3.63;;
39214;SDS011;24932;51.746;14.334;2022-12-07T13:56:40;4.5;;;2.83;;
39214;SDS011;24932;51.746;14.334;2022-12-07T14:00:40;3.4;;;2.7;;
39214;SDS011;24932;51.746;14.334;2022-12-07T14:04:41;6.17;;;3.1;;
39214;SDS011;24932;51.746;14.334;2022-12-07T14:08:41;4.3;;;2.53;;
39214;SDS011;24932;51.746;14.334;2022-12-07T14:12:41;10.97;;;3.4;;
39214;SDS011;24932;51.746;14.334;2022-12-07T14:16:40;6.13;;;3.23;;
39214;SDS011;24932;51.746;14.334;2022-12-07T14:20:40;10.7;;;3.93;;
39214;SDS011;24932;51.746;14.334;2022-12-07T14:24:41;8.97;;;3.0;;
39214;SDS011;24932;51.746;14.334;2022-12-07T14:28:40;6.77;;;2.97;;
39214;SDS011;24932;51.746;14.334;2022-12-07T14:32:40;10.8;;;3.0;;
39214;SDS011;24932;51.746;14.334;2022-12-07T14:36:41;6.9;;;2.17;;
39214;SDS011;24932;51.746;14.334;2022-12-07T14:40:40;10.03;;;2.2;;
39214;SDS011;24932;51.746;14.334;2022-12-07T14:44:41;10.1;;;2.67;;
39214;SDS011;24932;51.746;14.334;2022-12-07T14:49:10;13.43;;;3.43;;
39214;SDS011;24932;51.746;14.334;2022-12-07T14:53:12;4.3;;;2.07;;
39214;SDS011;24932;51.746;14.334;2022-12-07T14:56:40;9.43;;;1.9;;
39214;SDS011;24932;51.746;14.334;2022-12-07T15:00:40;7.63;;;2.5;;
39214;SDS011;24932;51.746;14.334;2022-12-07T15:04:41;4.07;;;2.0;;
39214;SDS011;24932;51.746;14.334;2022-12-07T15:08:40;4.63;;;3.37;;
39214;SDS011;24932;51.746;14.334;2022-12-07T15:12:39;5.17;;;2.4;;
39214;SDS011;24932;51.746;14.334;2022-12-07T15:17:09;3.97;;;2.2;;
39214;SDS011;24932;51.746;14.334;2022-12-07T15:20:40;4.67;;;2.5;;
39214;SDS011;24932;51.746;14.334;2022-12-07T15:24:40;6.77;;;2.4;;
39214;SDS011;24932;51.746;14.334;2022-12-07T15:28:40;10.6;;;2.37;;
39214;SDS011;24932;51.746;14.334;2022-12-07T15:32:41;5.83;;;2.93;;
39214;SDS011;24932;51.746;14.334;2022-12-07T15:36:40;11.87;;;3.23;;
39214;SDS011;24932;51.746;14.334;2022-12-07T15:40:40;4.93;;;3.27;;
39214;SDS011;24932;51.746;14.334;2022-12-07T15:44:40;10.1;;;3.73;;
39214;SDS011;24932;51.746;14.334;2022-12-07T15:48:41;8.3;;;3.87;;
39214;SDS011;24932;51.746;14.334;2022-12-07T15:52:40;6.77;;;3.83;;
39214;SDS011;24932;51.746;14.334;2022-12-07T15:56:40;5.87;;;3.93;;
39214;SDS011;24932;51.746;14.334;2022-12-07T16:00:40;5.57;;;3.63;;
39214;SDS011;24932;51.746;14.334;2022-12-07T16:04:40;10.47;;;4.5;;
39214;SDS011;24932;51.746;14.334;2022-12-07T16:08:41;6.27;;;3.83;;
39214;SDS011;24932;51.746;14.334;2022-12-07T16:12:40;7.2;;;4.23;;
39214;SDS011;24932;51.746;14.334;2022-12-07T16:16:41;6.67;;;3.47;;
39214;SDS011;24932;51.746;14.334;2022-12-07T16:20:40;9.8;;;4.8;;
39214;SDS011;24932;51.746;14.334;2022-12-07T16:24:41;13.77;;;5.77;;
39214;SDS011;24932;51.746;14.334;2022-12-07T16:28:41;14.1;;;5.6;;
39214;SDS011;24932;51.746;14.334;2022-12-07T16:32:40;12.53;;;5.77;;
39214;SDS011;24932;51.746;14.334;2022-12-07T16:37:03;14.17;;;5.73;;
39214;SDS011;24932;51.746;14.334;2022-12-07T16:40:40;12.23;;;8.0;;
39214;SDS011;24932;51.746;14.334;2022-12-07T16:44:40;10.1;;;5.67;;
39214;SDS011;24932;51.746;14.334;2022-12-07T16:48:41;16.5;;;5.23;;
39214;SDS011;24932;51.746;14.334;2022-12-07T16:52:40;12.87;;;5.97;;
39214;SDS011;24932;51.746;14.334;2022-12-07T16:56:40;13.13;;;6.3;;
39214;SDS011;24932;51.746;14.334;2022-12-07T17:00:41;9.37;;;5.63;;
39214;SDS011;24932;51.746;14.334;2022-12-07T17:04:40;9.9;;;5.1;;
39214;SDS011;24932;51.746;14.334;2022-12-07T17:08:40;11.2;;;6.33;;
39214;SDS011;24932;51.746;14.334;2022-12-07T17:12:41;11.03;;;5.37;;
39214;SDS011;24932;51.746;14.334;2022-12-07T17:16:40;9.23;;;5.97;;
39214;SDS011;24932;51.746;14.334;2022-12-07T17:20:40;8.27;;;4.83;;
39214;SDS011;24932;51.746;14.334;2022-12-07T17:24:40;9.33;;;5.6;;
39214;SDS011;24932;51.746;14.334;2022-12-07T17:28:40;10.43;;;4.93;;
39214;SDS011;24932;51.746;14.334;2022-12-07T17:32:40;14.57;;;5.57;;
39214;SDS011;24932;51.746;14.334;2022-12-07T17:36:40;5.07;;;3.33;;
39214;SDS011;24932;51.746;14.334;2022-12-07T17:40:40;8.47;;;3.57;;
39214;SDS011;24932;51.746;14.334;2022-12-07T17:44:40;13.03;;;4.8;;
39214;SDS011;24932;51.746;14.334;2022-12-07T17:48:40;9.5;;;4.33;;
39214;SDS011;24932;51.746;14.334;2022-12-07T17:52:40;7.93;;;4.27;;
39214;SDS011;24932;51.746;14.334;2022-12-07T17:56:40;10.73;;;4.6;;
39214;SDS011;24932;51.746;14.334;2022-12-07T18:00:40;7.93;;;4.63;;
39214;SDS011;24932;51.746;14.334;2022-12-07T18:04:40;6.37;;;3.63;;
39214;SDS011;24932;51.746;14.334;2022-12-07T18:08:40;7.6;;;4.37;;
39214;SDS011;24932;51.746;14.334;2022-12-07T18:12:40;9.73;;;4.27;;
39214;SDS011;24932;51.746;14.334;2022-12-07T18:16:41;5.93;;;3.77;;
39214;SDS011;24932;51.746;14.334;2022-12-07T18:20:40;11.37;;;4.0;;
39214;SDS011;24932;51.746;14.334;2022-12-07T18:24:40;4.87;;;3.73;;
39214;SDS011;24932;51.746;14.334;2022-12-07T18:28:41;8.83;;;3.93;;
39214;SDS011;24932;51.746;14.334;2022-12-07T18:32:40;11.7;;;5.0;;
39214;SDS011;24932;51.746;14.334;2022-12-07T18:36:42;11.8;;;4.93;;
39214;SDS011;24932;51.746;14.334;2022-12-07T18:40:41;5.97;;;4.4;;
39214;SDS011;24932;51.746;14.334;2022-12-07T18:44:40;11.3;;;4.47;;
39214;SDS011;24932;51.746;14.334;2022-12-07T18:48:40;10.33;;;4.67;;
39214;SDS011;24932;51.746;14.334;2022-12-07T18:52:40;7.73;;;3.77;;
39214;SDS011;24932;51.746;14.334;2022-12-07T18:56:40;7.6;;;3.77;;
39214;SDS011;24932;51.746;14.334;2022-12-07T19:00:40;9.47;;;4.9;;
39214;SDS011;24932;51.746;14.334;2022-12-07T19:04:40;9.03;;;4.83;;
39214;SDS011;24932;51.746;14.334;2022-12-07T19:08:40;11.4;;;4.57;;
39214;SDS011;24932;51.746;14.334;2022-12-07T19:12:41;10.8;;;4.37;;
39214;SDS011;24932;51.746;14.334;2022-12-07T19:16:41;10.67;;;4.23;;
39214;SDS011;24932;51.746;14.334;2022-12-07T19:20:40;8.37;;;4.73;;
39214;SDS011;24932;51.746;14.334;2022-12-07T19:24:40;11.23;;;4.7;;
39214;SDS011;24932;51.746;14.334;2022-12-07T19:28:40;11.17;;;4.67;;
39214;SDS011;24932;51.746;14.334;2022-12-07T19:32:40;11.33;;;6.17;;
39214;SDS011;24932;51.746;14.334;2022-12-07T19:36:40;9.27;;;3.67;;
39214;SDS011;24932;51.746;14.334;2022-12-07T19:40:40;10.5;;;4.0;;
39214;SDS011;24932;51.746;14.334;2022-12-07T19:44:40;6.63;;;4.5;;
39214;SDS011;24932;51.746;14.334;2022-12-07T19:48:40;8.67;;;5.03;;
39214;SDS011;24932;51.746;14.334;2022-12-07T19:52:40;8.77;;;4.63;;
39214;SDS011;24932;51.746;14.334;2022-12-07T19:56:41;13.0;;;5.07;;
39214;SDS011;24932;51.746;14.334;2022-12-07T20:00:40;10.97;;;4.87;;
39214;SDS011;24932;51.746;14.334;2022-12-07T20:04:40;8.17;;;4.77;;
39214;SDS011;24932;51.746;14.334;2022-12-07T20:08:41;9.33;;;4.8;;
39214;SDS011;24932;51.746;14.334;2022-12-07T20:12:41;12.9;;;5.17;;
39214;SDS011;24932;51.746;14.334;2022-12-07T20:16:41;16.7;;;5.4;;
39214;SDS011;24932;51.746;14.334;2022-12-07T20:20:41;7.33;;;3.07;;
39214;SDS011;24932;51.746;14.334;2022-12-07T20:24:40;12.73;;;5.0;;
39214;SDS011;24932;51.746;14.334;2022-12-07T20:28:41;10.93;;;4.53;;
39214;SDS011;24932;51.746;14.334;2022-12-07T20:32:40;11.13;;;5.37;;
39214;SDS011;24932;51.746;14.334;2022-12-07T20:36:40;10.5;;;5.43;;
39214;SDS011;24932;51.746;14.334;2022-12-07T20:40:44;10.83;;;4.7;;
39214;SDS011;24932;51.746;14.334;2022-12-07T20:44:40;9.43;;;6.17;;
39214;SDS011;24932;51.746;14.334;2022-12-07T20:48:40;13.67;;;7.13;;
39214;SDS011;24932;51.746;14.334;2022-12-07T20:52:40;15.7;;;6.2;;
39214;SDS011;24932;51.746;14.334;2022-12-07T20:56:39;15.53;;;5.6;;
39214;SDS011;24932;51.746;14.334;2022-12-07T21:00:40;15.53;;;4.9;;
39214;SDS011;24932;51.746;14.334;2022-12-07T21:04:41;8.07;;;4.87;;
39214;SDS011;24932;51.746;14.334;2022-12-07T21:08:42;9.53;;;5.4;;
39214;SDS011;24932;51.746;14.334;2022-12-07T21:12:40;13.47;;;5.5;;
39214;SDS011;24932;51.746;14.334;2022-12-07T21:16:40;15.67;;;5.83;;
39214;SDS011;24932;51.746;14.334;2022-12-07T21:20:40;12.67;;;5.5;;
39214;SDS011;24932;51.746;14.334;2022-12-07T21:24:41;11.77;;;5.83;;
39214;SDS011;24932;51.746;14.334;2022-12-07T21:28:40;14.13;;;5.5;;
39214;SDS011;24932;51.746;14.334;2022-12-07T21:32:40;15.93;;;5.67;;
39214;SDS011;24932;51.746;14.334;2022-12-07T21:36:40;11.37;;;5.4;;
39214;SDS011;24932;51.746;14.334;2022-12-07T21:40:39;19.0;;;6.57;;
39214;SDS011;24932;51.746;14.334;2022-12-07T21:44:40;13.37;;;6.07;;
39214;SDS011;24932;51.746;14.334;2022-12-07T21:48:41;15.27;;;5.23;;
39214;SDS011;24932;51.746;14.334;2022-12-07T21:52:40;14.83;;;6.93;;
39214;SDS011;24932;51.746;14.334;2022-12-07T21:56:41;11.4;;;5.3;;
39214;SDS011;24932;51.746;14.334;2022-12-07T22:00:40;20.47;;;6.03;;
39214;SDS011;24932;51.746;14.334;2022-12-07T22:04:40;14.43;;;5.87;;
39214;SDS011;24932;51.746;14.334;2022-12-07T22:08:41;10.67;;;4.9;;
39214;SDS011;24932;51.746;14.334;2022-12-07T22:12:40;7.07;;;3.93;;
39214;SDS011;24932;51.746;14.334;2022-12-07T22:16:40;9.87;;;4.2;;
39214;SDS011;24932;51.746;14.334;2022-12-07T22:20:41;18.93;;;5.27;;
39214;SDS011;24932;51.746;14.334;2022-12-07T22:24:40;9.43;;;4.0;;
39214;SDS011;24932;51.746;14.334;2022-12-07T22:28:41;10.13;;;3.77;;
39214;SDS011;24932;51.746;14.334;2022-12-07T22:32:49;9.93;;;3.8;;
39214;SDS011;24932;51.746;14.334;2022-12-07T22:36:40;6.5;;;3.57;;
39214;SDS011;24932;51.746;14.334;2022-12-07T22:40:40;8.57;;;4.43;;
39214;SDS011;24932;51.746;14.334;2022-12-07T22:44:40;8.63;;;3.13;;
39214;SDS011;24932;51.746;14.334;2022-12-07T22:48:40;8.33;;;3.07;;
39214;SDS011;24932;51.746;14.334;2022-12-07T22:52:40;5.73;;;3.03;;
39214;SDS011;24932;51.746;14.334;2022-12-07T22:56:40;11.5;;;3.27;;
39214;SDS011;24932;51.746;14.334;2022-12-07T23:00:40;7.1;;;3.87;;
39214;SDS011;24932;51.746;14.334;2022-12-07T23:04:41;5.5;;;3.57;;
39214;SDS011;24932;51.746;14.334;2022-12-07T23:08:41;9.2;;;4.37;;
39214;SDS011;24932;51.746;14.334;2022-12-07T23:12:40;7.83;;;3.27;;
39214;SDS011;24932;51.746;14.334;2022-12-07T23:16:40;13.63;;;3.5;;
39214;SDS011;24932;51.746;14.334;2022-12-07T23:20:40;12.13;;;3.33;;
39214;SDS011;24932;51.746;14.334;2022-12-07T23:24:41;5.0;;;2.9;;
39214;SDS011;24932;51.746;14.334;2022-12-07T23:28:40;5.93;;;2.6;;
39214;SDS011;24932;51.746;14.334;2022-12-07T23:32:40;4.03;;;1.9;;
39214;SDS011;24932;51.746;14.334;2022-12-07T23:36:40;3.37;;;1.87;;
39214;SDS011;24932;51.746;14.334;2022-12-07T23:40:40;2.0;;;1.7;;